Time;durP1;ratioP1;P1;durP2;ratioP2;P2;SDS_P1;SDS_P2;PMS_P1;PMS_P2;Temp;Humidity;BMP_temperature;BMP_pressure;BME280_temperature;BME280_humidity;BME280_pressure;Samples;Min_cycle;Max_cycle;Signal;HPM_P1;HPM_P2
2021/08/06 00:02:21;;;;;;;7.55;5.68;;;16.90;85.60;;;16.85;70.52;94113.50;5033483;28;20188;-83
2021/08/06 00:04:48;;;;;;;7.20;5.88;;;17.00;85.60;;;16.87;70.58;94118.53;5033365;28;20374;-84
2021/08/06 00:07:16;;;;;;;6.38;5.78;;;17.00;85.50;;;16.89;70.82;94113.81;5017008;28;20762;-84
2021/08/06 00:09:43;;;;;;;6.22;5.72;;;17.10;85.40;;;16.91;70.38;94117.00;5033627;28;20299;-84
2021/08/06 00:12:10;;;;;;;5.47;4.97;;;17.10;85.20;;;16.90;70.31;94118.84;5033324;28;20654;-84
2021/08/06 00:14:38;;;;;;;6.35;5.20;;;17.10;85.10;;;16.90;70.41;94118.06;5016855;28;20641;-84
2021/08/06 00:17:05;;;;;;;5.85;5.22;;;17.00;84.90;;;16.90;70.46;94118.06;5017124;28;20252;-84
2021/08/06 00:19:32;;;;;;;5.97;5.47;;;17.10;85.00;;;16.90;70.17;94123.34;5016853;28;20311;-84
2021/08/06 00:22:00;;;;;;;5.90;5.20;;;17.10;85.00;;;16.91;70.29;94115.16;5049975;28;20689;-84
2021/08/06 00:24:27;;;;;;;4.97;4.50;;;17.10;85.10;;;16.94;70.56;94111.22;5016859;28;20280;-81
2021/08/06 00:26:55;;;;;;;5.25;4.75;;;17.10;85.10;;;16.93;70.07;94115.75;5016987;28;20196;-84
2021/08/06 00:29:22;;;;;;;5.63;5.13;;;17.10;85.00;;;16.95;70.15;94110.19;5000660;28;20196;-85
2021/08/06 00:31:50;;;;;;;7.30;4.80;;;17.10;85.00;;;16.95;70.18;94115.47;5016620;28;20195;-84
2021/08/06 00:34:18;;;;;;;7.38;4.72;;;17.10;84.90;;;16.94;70.00;94111.22;5016783;28;20226;-84
2021/08/06 00:36:49;;;;;;;5.13;4.63;;;17.10;84.90;;;16.93;69.88;94106.97;5017206;28;20223;-84
2021/08/06 00:39:17;;;;;;;5.45;4.88;;;17.10;84.80;;;16.93;70.17;94104.31;5016569;28;20207;-85
2021/08/06 00:41:45;;;;;;;6.43;5.20;;;17.20;84.80;;;16.90;69.93;94108.25;5016774;28;20192;-85
2021/08/06 00:44:14;;;;;;;6.93;4.68;;;17.10;84.50;;;16.88;70.23;94102.41;5016876;28;20207;-84
2021/08/06 00:46:42;;;;;;;5.47;4.97;;;17.10;84.40;;;16.83;69.45;94105.00;5016446;28;20204;-84
2021/08/06 00:49:13;;;;;;;5.20;4.70;;;17.10;84.30;;;16.77;69.88;94109.47;5015980;28;20203;-81
2021/08/06 00:51:48;;;;;;;6.55;4.38;;;17.10;84.30;;;16.75;69.85;94111.56;5017466;28;20205;-84
2021/08/06 00:54:17;;;;;;;5.90;4.63;;;17.00;84.30;;;16.76;70.29;94118.47;5032669;28;20220;-84
2021/08/06 00:57:06;;;;;;;6.68;4.30;;;17.00;84.40;;;16.74;69.63;94117.91;5005771;28;20648;-84
2021/08/06 00:59:39;;;;;;;5.40;4.90;;;17.00;84.50;;;16.72;70.15;94113.91;5033563;28;20306;-84
2021/08/06 01:02:20;;;;;;;5.15;4.65;;;17.00;84.60;;;16.73;69.99;94118.94;5016059;28;20624;-84
2021/08/06 01:05:11;;;;;;;5.43;4.88;;;17.00;84.60;;;16.74;70.30;94120.53;5032286;28;20208;-83
2021/08/06 01:07:57;;;;;;;5.60;4.28;;;17.00;84.60;;;16.75;70.35;94116.06;5016581;28;20203;-83
2021/08/06 01:10:35;;;;;;;4.70;4.20;;;17.00;84.60;;;16.76;70.41;94113.16;5016159;28;20224;-84
2021/08/06 01:13:10;;;;;;;4.40;4.00;;;17.00;84.60;;;16.74;70.08;94112.59;5032174;28;20192;-85
2021/08/06 01:15:41;;;;;;;4.88;4.20;;;17.10;84.60;;;16.75;70.40;94108.13;5016437;28;20224;-84
2021/08/06 01:18:13;;;;;;;5.30;4.80;;;17.00;84.40;;;16.74;69.72;94098.56;5048449;28;20219;-84
2021/08/06 01:20:51;;;;;;;4.43;4.00;;;17.00;84.40;;;16.71;70.26;94099.88;5016147;28;20208;-84
2021/08/06 01:23:30;;;;;;;4.70;4.30;;;17.00;84.40;;;16.69;69.70;94093.25;5015743;28;20278;-84
2021/08/06 01:26:03;;;;;;;4.25;3.90;;;16.90;84.30;;;16.68;70.01;94089.00;5015355;28;20244;-82
2021/08/06 01:28:48;;;;;;;5.72;3.88;;;17.00;84.40;;;16.67;69.67;94090.03;5017395;28;20207;-81
2021/08/06 01:31:28;;;;;;;4.38;3.70;;;17.00;84.30;;;16.66;70.04;94094.50;5015372;28;20219;-83
2021/08/06 01:34:15;;;;;;;6.00;3.70;;;16.90;84.20;;;16.63;69.68;94081.78;5025255;28;20200;-84
2021/08/06 01:36:43;;;;;;;5.72;4.38;;;16.90;84.20;;;16.62;69.76;94082.84;5015329;28;20227;-83
2021/08/06 01:39:16;;;;;;;4.35;3.95;;;16.90;84.20;;;16.63;69.55;94095.03;5016199;28;20207;-83
2021/08/06 01:42:05;;;;;;;4.90;3.90;;;16.90;84.20;;;16.61;69.71;94086.53;5000197;28;20207;-84
2021/08/06 01:44:51;;;;;;;4.60;3.80;;;16.90;84.20;;;16.60;69.73;94080.44;5047943;28;20601;-82
2021/08/06 01:47:30;;;;;;;5.80;4.03;;;16.90;84.20;;;16.59;69.68;94083.34;5016577;28;20315;-83
2021/08/06 01:50:07;;;;;;;4.70;4.15;;;16.80;84.20;;;16.60;69.70;94084.91;5016315;28;20302;-84
2021/08/06 01:53:01;;;;;;;3.97;3.58;;;16.80;84.20;;;16.55;69.54;94085.69;4999552;28;20222;-83
2021/08/06 01:55:47;;;;;;;4.78;3.88;;;16.90;84.10;;;16.54;69.85;94092.03;5033059;28;20227;-83
2021/08/06 01:58:17;;;;;;;4.10;3.70;;;16.80;84.10;;;16.52;69.68;94091.47;5015633;28;20208;-83
2021/08/06 02:00:54;;;;;;;4.07;3.78;;;16.90;84.20;;;16.49;70.07;94090.13;5016245;28;20240;-84
2021/08/06 02:03:22;;;;;;;4.38;3.70;;;16.80;84.10;;;16.51;69.81;94087.22;5014925;28;20603;-83
2021/08/06 02:05:57;;;;;;;4.65;4.25;;;16.90;84.30;;;16.51;69.56;94092.50;5015740;28;20239;-83
2021/08/06 02:08:24;;;;;;;4.55;3.45;;;16.80;84.30;;;16.49;70.27;94084.84;5014897;28;20239;-83
2021/08/06 02:10:51;;;;;;;4.25;3.85;;;16.80;84.30;;;16.43;70.34;94069.94;5014603;28;20630;-84
2021/08/06 02:13:23;;;;;;;6.40;3.78;;;16.80;84.30;;;16.51;70.36;94084.56;5015480;28;20207;-83
2021/08/06 02:15:51;;;;;;;4.32;3.92;;;16.80;84.30;;;16.47;69.62;94081.63;5031836;28;20704;-84
2021/08/06 02:18:22;;;;;;;4.40;3.97;;;16.80;84.20;;;16.42;69.50;94076.28;4998995;28;20204;-83
2021/08/06 02:21:03;;;;;;;4.10;3.70;;;16.70;84.10;;;16.46;69.95;94071.28;5031196;28;20237;-84
2021/08/06 02:23:36;;;;;;;3.97;3.65;;;16.70;84.20;;;16.46;70.07;94084.53;4999585;28;20210;-84
2021/08/06 02:26:06;;;;;;;5.07;3.95;;;16.70;84.20;;;16.46;nan;94087.97;5015009;28;20306;-83
2021/08/06 02:28:34;;;;;;;4.80;3.90;;;16.70;84.10;;;16.41;70.04;94082.63;5014886;28;20228;-84
2021/08/06 02:31:03;;;;;;;4.15;3.75;;;16.70;84.20;;;16.43;70.00;94092.94;5015015;28;20211;-81
2021/08/06 02:33:31;;;;;;;4.82;3.72;;;16.80;84.30;;;16.42;69.82;94086.88;5031501;28;20203;-82
2021/08/06 02:35:58;;;;;;;4.93;3.85;;;16.70;84.00;;;16.40;69.53;94086.31;5015051;28;20215;-83
2021/08/06 02:38:27;;;;;;;4.78;3.55;;;16.60;83.90;;;16.40;69.45;94085.53;5014837;28;20200;-84
2021/08/06 02:40:55;;;;;;;3.72;3.30;;;16.60;83.90;;;16.40;69.92;94085.53;5015004;28;20278;-84
2021/08/06 02:43:22;;;;;;;4.80;3.72;;;16.60;83.90;;;16.39;69.93;94075.97;5014536;28;20204;-83
2021/08/06 02:45:51;;;;;;;5.18;4.10;;;16.60;84.90;;;16.39;69.89;94079.41;4998253;28;20716;-83
2021/08/06 02:48:19;;;;;;;4.68;4.00;;;16.60;84.20;;;16.37;69.79;94086.81;5014600;28;20243;-83
2021/08/06 02:50:47;;;;;;;4.40;4.00;;;16.60;84.20;;;16.39;70.10;94078.63;5014406;28;20224;-84
2021/08/06 02:53:15;;;;;;;4.32;3.90;;;16.70;84.20;;;16.35;69.41;94067.75;5031075;28;20199;-84
2021/08/06 02:55:43;;;;;;;4.65;4.20;;;16.60;84.00;;;16.35;69.46;94073.03;5014477;28;20224;-84
2021/08/06 02:58:12;;;;;;;5.95;4.00;;;16.70;84.00;;;16.29;69.35;94061.59;5030963;28;20200;-83
2021/08/06 03:00:39;;;;;;;5.40;4.72;;;16.60;83.90;;;16.28;69.85;94067.94;5000381;28;20220;-84
2021/08/06 03:03:08;;;;;;;3.97;3.67;;;16.60;83.80;;;16.24;69.26;94069.47;5018568;28;20200;-84
2021/08/06 03:05:36;;;;;;;4.45;4.05;;;16.60;83.70;;;16.20;69.20;94071.03;5018359;28;20224;-84
2021/08/06 03:08:04;;;;;;;5.22;3.60;;;16.70;83.70;;;16.17;69.67;94061.75;5017792;28;20298;-84
2021/08/06 03:10:34;;;;;;;5.03;3.70;;;16.50;83.70;;;16.13;69.59;94075.69;5034350;28;20692;-84
2021/08/06 03:13:01;;;;;;;5.22;3.97;;;16.50;83.70;;;16.10;69.33;94077.00;5018273;28;20192;-84
2021/08/06 03:15:30;;;;;;;7.78;4.15;;;16.40;83.70;;;16.07;69.51;94072.19;5018656;28;20310;-85
2021/08/06 03:17:57;;;;;;;6.30;4.05;;;16.50;83.80;;;16.07;69.81;94077.47;5018089;28;20194;-82
2021/08/06 03:20:25;;;;;;;5.32;4.25;;;16.40;83.80;;;16.09;69.74;94083.34;5018050;28;20713;-82
2021/08/06 03:22:56;;;;;;;4.30;3.90;;;16.40;83.90;;;16.10;69.72;94082.28;5018724;28;20204;-84
2021/08/06 03:25:23;;;;;;;4.03;3.70;;;16.30;84.00;;;16.13;70.09;94081.00;5001581;28;20709;-83
2021/08/06 03:27:55;;;;;;;5.05;4.55;;;16.40;84.20;;;16.14;69.81;94079.94;5018113;28;20663;-84
2021/08/06 03:30:26;;;;;;;4.55;4.15;;;16.40;84.20;;;16.15;70.07;94081.56;5018150;28;20314;-84
2021/08/06 03:32:54;;;;;;;5.03;4.53;;;16.40;84.20;;;16.14;69.95;94078.09;5001739;28;20290;-84
2021/08/06 03:35:22;;;;;;;4.20;3.80;;;16.50;84.30;;;16.13;69.50;94076.50;5017878;28;20243;-81
2021/08/06 03:37:51;;;;;;;4.45;3.88;;;16.40;84.10;;;16.14;70.09;94083.38;5017879;28;20215;-81
2021/08/06 03:40:19;;;;;;;5.15;4.68;;;16.40;84.10;;;16.12;69.56;94076.75;5018083;28;20572;-82
2021/08/06 03:42:46;;;;;;;4.47;4.07;;;16.40;84.10;;;16.10;69.39;94076.19;5017551;28;20562;-82
2021/08/06 03:45:14;;;;;;;4.20;3.80;;;16.40;84.00;;;16.04;69.19;94063.94;5017458;28;20425;-82
2021/08/06 03:47:41;;;;;;;4.43;3.92;;;16.40;83.90;;;16.09;69.90;94079.91;5017563;28;20708;-84
2021/08/06 03:50:10;;;;;;;5.60;4.43;;;16.40;83.90;;;16.08;69.58;94086.22;5017469;28;20586;-84
2021/08/06 03:52:39;;;;;;;6.45;4.22;;;16.30;83.80;;;16.03;69.46;94075.56;5017536;28;20289;-84
2021/08/06 03:55:07;;;;;;;4.85;4.20;;;16.30;83.70;;;16.00;69.50;94069.75;5017449;28;20216;-84
2021/08/06 03:57:34;;;;;;;6.30;4.97;;;16.30;83.80;;;15.95;69.54;94068.88;5033730;28;20214;-84
2021/08/06 04:00:02;;;;;;;6.10;4.47;;;16.30;83.80;;;15.95;69.68;94082.09;5033825;28;20270;-83
2021/08/06 04:02:32;;;;;;;5.93;5.32;;;16.30;83.90;;;15.92;69.99;94085.25;5033550;28;20654;-84
2021/08/06 04:04:59;;;;;;;5.55;4.72;;;16.30;84.00;;;15.91;70.00;94083.66;5016763;28;20282;-83
2021/08/06 04:07:27;;;;;;;6.45;4.95;;;16.30;84.30;;;15.94;70.27;94077.84;5016958;28;20200;-84
2021/08/06 04:09:54;;;;;;;5.38;4.88;;;16.20;84.40;;;15.98;70.36;94082.41;5050221;28;20558;-83
2021/08/06 04:12:21;;;;;;;5.60;5.10;;;16.30;84.70;;;16.05;70.28;94087.53;5016592;28;20200;-84
2021/08/06 04:14:49;;;;;;;6.05;5.47;;;16.20;84.80;;;16.10;70.40;94090.22;5016852;28;20219;-83
2021/08/06 04:17:16;;;;;;;5.20;4.70;;;16.30;85.00;;;16.14;70.40;94082.59;5033406;28;20194;-81
2021/08/06 04:19:43;;;;;;;5.65;4.97;;;16.30;85.00;;;16.20;70.40;94092.19;5015959;28;20227;-80
2021/08/06 04:22:11;;;;;;;5.72;5.13;;;16.40;85.00;;;16.25;70.57;94086.94;5033145;28;20748;-84
2021/08/06 04:24:38;;;;;;;5.65;5.15;;;16.40;84.90;;;16.28;70.41;94088.31;5033283;28;20246;-83
2021/08/06 04:27:06;;;;;;;5.20;4.68;;;16.40;84.90;;;16.26;70.35;94085.09;5017118;28;20188;-83
2021/08/06 04:29:33;;;;;;;6.00;5.40;;;16.50;85.00;;;16.32;70.37;94090.22;5016644;28;20282;-84
2021/08/06 04:32:00;;;;;;;5.75;5.15;;;16.50;85.00;;;16.35;70.33;94085.47;5016530;28;20250;-83
2021/08/06 04:34:28;;;;;;;5.68;5.18;;;16.50;85.00;;;16.36;70.24;94079.94;5033188;28;20238;-84
2021/08/06 04:36:55;;;;;;;6.05;5.45;;;16.50;85.00;;;16.37;70.45;94084.19;5016379;28;20295;-84
2021/08/06 04:39:22;;;;;;;5.70;5.18;;;16.60;85.00;;;16.42;70.05;94086.09;5033116;28;20246;-84
2021/08/06 04:41:50;;;;;;;6.28;5.68;;;16.60;84.80;;;16.41;69.72;94092.41;5016545;28;20223;-84
2021/08/06 04:44:19;;;;;;;5.22;4.72;;;16.60;85.40;;;16.39;69.57;94097.94;5016936;28;20650;-82
2021/08/06 04:46:46;;;;;;;5.90;5.30;;;16.60;84.40;;;16.35;69.85;94088.91;5016333;28;20196;-85
2021/08/06 04:49:14;;;;;;;5.95;5.45;;;16.70;84.30;;;16.29;69.79;94090.69;5033193;28;20228;-85
2021/08/06 04:51:42;;;;;;;6.13;5.53;;;16.60;84.20;;;16.24;69.81;94095.94;5032653;28;20567;-84
2021/08/06 04:54:10;;;;;;;5.40;4.90;;;16.50;84.10;;;16.26;69.68;94100.97;5016244;28;20236;-84
2021/08/06 04:56:39;;;;;;;5.82;5.22;;;16.50;84.10;;;16.20;69.84;94092.19;5032596;28;20209;-84
2021/08/06 04:59:10;;;;;;;6.88;5.28;;;16.50;84.20;;;16.20;70.11;94097.47;5017553;28;20297;-84
2021/08/06 05:01:37;;;;;;;5.60;5.10;;;16.50;85.10;;;16.22;69.99;94105.97;5015995;28;20216;-84
2021/08/06 05:04:04;;;;;;;5.93;5.43;;;16.50;84.50;;;16.24;69.97;94103.09;5015713;28;20232;-84
2021/08/06 05:06:32;;;;;;;6.15;5.55;;;16.50;84.50;;;16.23;70.22;94101.47;5015891;28;20223;-84
2021/08/06 05:08:59;;;;;;;6.50;5.90;;;16.50;84.50;;;16.23;nan;94104.91;5032529;28;20216;-84
2021/08/06 05:11:28;;;;;;;6.50;5.50;;;16.50;84.40;;;16.23;69.68;94106.78;5016071;28;20220;-85
2021/08/06 05:13:55;;;;;;;6.30;5.30;;;16.40;84.40;;;16.24;70.02;94114.44;5015954;28;20227;-84
2021/08/06 05:16:24;;;;;;;5.80;5.28;;;16.50;84.50;;;16.27;70.32;94107.88;5031878;28;20215;-84
2021/08/06 05:18:52;;;;;;;6.03;5.43;;;16.50;84.70;;;16.30;70.16;94116.09;5015827;28;20563;-81
2021/08/06 05:21:19;;;;;;;6.55;5.82;;;16.50;84.90;;;16.39;70.46;94118.31;5015787;28;20208;-81
2021/08/06 05:23:47;;;;;;;6.63;6.03;;;16.60;85.40;;;16.54;71.08;94125.63;4998868;28;20199;-83
2021/08/06 05:26:16;;;;;;;6.47;5.75;;;16.60;86.10;;;16.73;71.33;94126.88;5032027;28;20208;-84
2021/08/06 05:28:43;;;;;;;7.55;6.78;;;16.70;86.60;;;16.91;71.37;94122.31;5015677;28;20228;-84
2021/08/06 05:31:10;;;;;;;6.75;6.05;;;16.80;86.90;;;17.02;71.39;94121.38;5015679;28;20222;-84
2021/08/06 05:33:38;;;;;;;7.07;5.88;;;16.90;87.10;;;17.20;71.34;94127.34;5016082;28;20250;-84
2021/08/06 05:36:05;;;;;;;6.35;5.72;;;17.10;87.20;;;17.34;71.07;94131.16;4999258;28;20220;-85
2021/08/06 05:38:34;;;;;;;6.00;5.50;;;17.10;87.10;;;17.48;71.42;94128.91;5016095;28;20196;-84
2021/08/06 05:41:02;;;;;;;6.13;5.63;;;17.20;87.20;;;17.67;70.99;94131.94;5016060;28;20728;-84
2021/08/06 05:43:29;;;;;;;5.90;5.30;;;17.50;87.40;;;17.84;70.89;94138.94;5031965;28;20191;-86
2021/08/06 05:45:57;;;;;;;5.40;5.00;;;17.60;87.30;;;17.99;70.54;94130.28;5014995;28;20752;-81
2021/08/06 05:48:25;;;;;;;5.95;5.45;;;17.70;87.20;;;18.18;70.24;94131.44;5015383;28;20695;-84
2021/08/06 05:50:52;;;;;;;5.55;5.05;;;17.90;87.10;;;18.29;70.22;94126.19;5015339;28;20214;-81
2021/08/06 05:53:23;;;;;;;5.28;4.88;;;18.00;86.80;;;18.36;69.60;94129.41;5015754;28;20635;-84
2021/08/06 05:56:00;;;;;;;5.68;5.18;;;18.20;86.50;;;18.42;69.80;94133.69;5015733;28;20226;-83
2021/08/06 05:58:34;;;;;;;5.30;4.80;;;18.20;86.20;;;18.44;69.43;94133.41;5004321;28;20725;-81
2021/08/06 06:01:02;;;;;;;5.30;4.90;;;18.40;85.60;;;18.40;68.80;94141.88;5019309;28;20223;-80
2021/08/06 06:03:38;;;;;;;5.57;5.07;;;18.40;85.10;;;18.37;69.20;94137.09;4996310;28;20214;-80
2021/08/06 06:06:15;;;;;;;4.88;4.47;;;18.40;84.90;;;18.39;68.83;94135.00;5013358;28;20261;-83
2021/08/06 06:08:42;;;;;;;5.28;4.85;;;18.40;84.90;;;18.41;69.16;94129.44;5015995;28;20566;-84
2021/08/06 06:11:09;;;;;;;5.10;4.70;;;18.50;85.00;;;18.46;69.18;94134.75;4979144;28;20213;-84
2021/08/06 06:13:37;;;;;;;5.50;4.97;;;18.50;85.00;;;18.45;69.57;94130.50;4995340;28;20709;-84
2021/08/06 06:16:05;;;;;;;6.40;4.90;;;18.60;85.10;;;18.56;69.03;94136.63;5011442;28;20216;-85
2021/08/06 06:18:33;;;;;;;5.60;5.20;;;18.60;85.20;;;18.59;69.14;94141.44;4995110;28;20207;-80
2021/08/06 06:21:00;;;;;;;5.63;5.13;;;18.60;85.00;;;18.61;68.63;94144.63;4978415;28;20227;-83
2021/08/06 06:23:28;;;;;;;5.55;5.15;;;18.70;84.70;;;18.56;68.23;94148.03;4995326;28;20258;-81
2021/08/06 06:25:55;;;;;;;5.25;4.70;;;18.60;84.20;;;18.54;68.31;94149.38;4995416;28;20224;-81
2021/08/06 06:28:26;;;;;;;5.32;4.88;;;18.60;84.20;;;18.55;68.56;94154.44;4996078;28;20315;-83
2021/08/06 06:30:55;;;;;;;6.10;5.60;;;18.60;84.40;;;18.56;68.74;94155.22;4995455;28;20232;-84
2021/08/06 06:33:25;;;;;;;5.88;5.38;;;18.70;84.40;;;18.55;69.07;94159.75;5011487;28;20258;-83
2021/08/06 06:35:52;;;;;;;5.90;5.03;;;18.70;84.50;;;18.59;69.06;94157.38;4998965;28;20226;-83
2021/08/06 06:38:20;;;;;;;9.55;5.40;;;18.80;84.80;;;18.72;69.70;94156.88;4982529;28;20203;-84
2021/08/06 06:40:48;;;;;;;5.05;4.55;;;18.70;85.20;;;18.84;69.76;94159.28;5015227;28;20217;-83
2021/08/06 06:43:22;;;;;;;5.65;5.15;;;18.80;85.50;;;18.98;69.12;94156.97;5015445;28;20237;-84
2021/08/06 06:45:49;;;;;;;5.65;5.15;;;18.90;85.40;;;19.08;69.07;94156.19;5015205;28;20220;-84
2021/08/06 06:48:17;;;;;;;6.25;5.65;;;18.90;85.10;;;19.16;69.08;94165.50;5015119;28;20211;-84
2021/08/06 06:50:44;;;;;;;6.03;5.50;;;19.00;85.10;;;19.24;68.47;94159.66;4998809;28;20262;-84
2021/08/06 06:53:12;;;;;;;5.70;5.20;;;19.10;85.00;;;19.30;68.66;94155.94;5031598;28;20193;-87
2021/08/06 06:55:39;;;;;;;5.57;5.07;;;19.20;84.80;;;19.36;68.23;94156.75;4998874;28;20225;-84
2021/08/06 06:58:06;;;;;;;6.18;5.10;;;19.30;84.80;;;19.49;68.84;94153.56;4998616;28;20201;-83
2021/08/06 07:00:34;;;;;;;5.78;5.30;;;19.30;85.00;;;19.63;68.47;94153.03;4998796;28;20220;-84
2021/08/06 07:03:08;;;;;;;5.25;4.85;;;19.40;85.10;;;19.71;68.51;94157.00;4984577;28;20212;-85
2021/08/06 07:05:35;;;;;;;5.75;5.07;;;19.50;84.90;;;19.79;68.34;94169.75;5014781;28;20742;-85
2021/08/06 07:08:04;;;;;;;5.63;5.20;;;19.60;84.70;;;19.74;68.03;94156.44;4997846;28;20189;-85
2021/08/06 07:10:33;;;;;;;5.72;5.22;;;19.70;84.30;;;19.77;67.87;94167.34;4982996;28;20324;-84
2021/08/06 07:13:01;;;;;;;5.53;5.03;;;19.70;83.90;;;19.77;67.49;94170.00;5014881;28;20208;-85
2021/08/06 07:15:28;;;;;;;5.57;5.07;;;19.70;83.80;;;19.80;67.77;94164.16;5014909;28;20221;-84
2021/08/06 07:17:56;;;;;;;5.32;4.85;;;19.80;83.70;;;19.91;67.63;94164.97;4982406;28;20204;-84
2021/08/06 07:20:27;;;;;;;5.60;5.18;;;19.80;83.80;;;20.01;67.55;94161.50;5013811;28;20238;-85
2021/08/06 07:22:57;;;;;;;4.47;4.18;;;19.80;84.10;;;20.15;67.98;94159.88;4998079;28;20201;-84
2021/08/06 07:25:25;;;;;;;4.80;4.40;;;19.90;84.40;;;20.38;67.99;94157.66;4998674;28;20221;-81
2021/08/06 07:27:55;;;;;;;5.25;4.85;;;20.00;84.80;;;20.51;67.19;94158.97;5031241;28;20640;-82
2021/08/06 07:30:24;;;;;;;5.25;4.82;;;20.20;84.30;;;20.68;66.63;94155.13;4982350;28;20275;-82
2021/08/06 07:32:52;;;;;;;4.60;4.25;;;20.30;84.20;;;20.83;67.00;94165.75;5014414;28;20269;-82
2021/08/06 07:35:21;;;;;;;4.65;4.32;;;20.40;84.40;;;20.99;66.39;94157.69;4997954;28;20213;-82
2021/08/06 07:37:49;;;;;;;4.40;4.00;;;20.50;84.10;;;21.08;66.14;94162.16;4998415;28;20200;-84
2021/08/06 07:40:17;;;;;;;4.03;3.72;;;20.70;83.60;;;21.21;65.40;94160.72;4997877;28;20229;-84
2021/08/06 07:42:45;;;;;;;3.70;3.40;;;20.80;83.10;;;21.26;64.93;94165.22;4998207;28;20319;-84
2021/08/06 07:45:15;;;;;;;3.85;3.42;;;20.90;82.40;;;21.26;64.63;94160.72;5013903;28;20273;-84
2021/08/06 07:47:42;;;;;;;3.90;3.60;;;21.00;82.40;;;21.23;64.25;94155.13;5030658;28;20197;-84
2021/08/06 07:50:11;;;;;;;4.05;3.75;;;21.10;82.00;;;21.24;64.56;94164.75;4997802;28;20236;-82
2021/08/06 07:52:38;;;;;;;3.67;3.38;;;21.10;81.70;;;21.32;63.54;94158.00;4997614;28;20264;-81
2021/08/06 07:55:08;;;;;;;3.85;3.55;;;21.10;81.60;;;21.47;63.78;94165.91;5030149;28;20334;-82
2021/08/06 07:57:37;;;;;;;3.28;3.08;;;21.20;81.30;;;21.57;63.91;94167.72;4998434;28;20225;-81
2021/08/06 08:00:06;;;;;;;3.00;2.80;;;21.30;81.40;;;21.57;62.02;94167.72;5014226;28;20300;-86
2021/08/06 08:02:42;;;;;;;3.40;3.10;;;21.30;80.20;;;21.52;61.77;94152.50;4998897;28;20615;-84
2021/08/06 08:05:20;;;;;;;3.63;3.33;;;21.40;79.80;;;21.48;61.05;94162.13;4998313;28;20222;-81
2021/08/06 08:07:49;;;;;;;2.92;2.70;;;21.40;78.90;;;21.45;61.47;94165.38;5013613;28;20197;-83
2021/08/06 08:10:23;;;;;;;3.53;3.08;;;21.40;79.10;;;21.42;61.52;94164.06;4998028;28;20245;-81
2021/08/06 08:13:09;;;;;;;3.47;3.17;;;21.40;79.10;;;21.46;61.82;94163.50;5013594;28;20207;-81
2021/08/06 08:15:38;;;;;;;3.45;3.00;;;21.40;79.10;;;21.51;61.44;94166.94;4997431;28;20215;-82
2021/08/06 08:18:06;;;;;;;3.10;2.90;;;21.40;79.00;;;21.56;60.27;94164.25;4980567;28;20207;-85
2021/08/06 08:20:33;;;;;;;2.92;2.72;;;21.40;78.30;;;21.61;61.17;94165.28;4981271;28;20242;-85
2021/08/06 08:23:00;;;;;;;3.33;3.10;;;21.50;78.90;;;21.69;60.83;94162.81;5013389;28;20664;-82
2021/08/06 08:25:28;;;;;;;3.47;3.17;;;21.50;78.90;;;21.75;61.07;94159.03;5013305;28;20615;-82
2021/08/06 08:27:55;;;;;;;3.28;2.95;;;21.50;78.90;;;21.82;61.22;94157.91;5013378;28;20657;-82
2021/08/06 08:30:23;;;;;;;3.15;2.95;;;21.60;78.90;;;21.81;59.52;94153.63;4996874;28;20235;-82
2021/08/06 08:32:53;;;;;;;3.05;2.85;;;21.60;78.20;;;21.81;60.67;94161.63;4997964;28;20713;-83
2021/08/06 08:35:21;;;;;;;2.60;2.40;;;21.60;78.10;;;21.81;60.21;94162.41;4997114;28;20224;-82
2021/08/06 08:37:48;;;;;;;3.20;2.90;;;21.70;78.30;;;21.85;60.12;94162.66;5013387;28;20258;-81
2021/08/06 08:40:17;;;;;;;3.28;2.80;;;21.80;78.10;;;21.84;59.96;94158.41;4997157;28;20227;-81
2021/08/06 08:42:45;;;;;;;3.15;2.90;;;21.70;78.00;;;21.84;59.84;94169.88;4997016;28;20558;-83
2021/08/06 08:45:13;;;;;;;3.10;2.90;;;21.80;77.70;;;21.89;59.07;94164.50;5012736;28;20219;-81
2021/08/06 08:47:43;;;;;;;3.10;2.88;;;21.80;77.30;;;21.94;59.39;94166.31;5012775;28;20640;-82
2021/08/06 08:50:14;;;;;;;2.80;2.60;;;21.80;77.30;;;21.97;58.05;94162.28;4997411;28;20266;-82
2021/08/06 08:52:44;;;;;;;2.78;2.58;;;21.80;76.60;;;22.01;58.79;94161.44;5013212;28;20313;-82
2021/08/06 08:55:13;;;;;;;3.35;3.05;;;21.80;76.90;;;22.06;58.58;94161.38;5029066;28;20602;-82
2021/08/06 08:57:44;;;;;;;2.72;2.53;;;21.80;76.90;;;22.06;58.37;94166.72;4997157;28;20220;-82
2021/08/06 09:00:15;;;;;;;2.60;2.40;;;21.90;76.70;;;22.09;58.97;94161.91;4996428;28;20219;-82
2021/08/06 09:02:45;;;;;;;3.88;3.03;;;21.90;76.90;;;22.09;59.26;94169.91;4997088;28;20299;-84
2021/08/06 09:05:24;;;;;;;4.00;2.97;;;21.90;76.90;;;21.94;58.62;94165.53;4997102;28;20222;-83
2021/08/06 09:07:58;;;;;;;6.13;2.72;;;21.90;76.50;;;21.69;59.21;94176.16;4998530;28;20639;-83
2021/08/06 09:10:30;;;;;;;4.43;2.83;;;21.90;76.80;;;21.34;59.77;94174.53;5012988;28;20315;-84
2021/08/06 09:13:23;;;;;;;2.95;2.67;;;21.70;76.70;;;20.99;61.01;94168.34;4999986;28;20238;-88
2021/08/06 09:16:04;;;;;;;3.63;2.63;;;21.50;77.30;;;20.76;61.49;94182.06;5029536;28;20311;-85
2021/08/06 09:18:38;;;;;;;3.03;2.80;;;21.40;77.10;;;20.54;61.77;94189.56;5013793;28;20255;-85
2021/08/06 09:21:15;;;;;;;2.72;2.53;;;21.20;77.10;;;20.34;62.45;94187.78;4996397;28;20311;-85
2021/08/06 09:23:48;;;;;;;2.53;2.33;;;21.00;77.60;;;20.23;63.01;94187.81;5029197;28;20635;-82
2021/08/06 09:26:28;;;;;;;2.78;2.58;;;20.90;77.90;;;20.20;63.43;94199.00;5012549;28;20837;-85
2021/08/06 09:29:20;;;;;;;2.78;2.58;;;20.70;78.30;;;20.24;63.78;94189.41;5028657;28;20251;-81
2021/08/06 09:31:59;;;;;;;2.80;2.53;;;20.60;79.20;;;20.36;63.88;94191.78;4996433;28;20274;-84
2021/08/06 09:34:36;;;;;;;6.35;3.05;;;20.60;79.50;;;20.55;63.80;94186.63;5012176;28;20292;-82
2021/08/06 09:37:08;;;;;;;3.47;3.17;;;20.60;80.00;;;20.72;63.84;94188.22;5012400;28;20216;-84
2021/08/06 09:39:50;;;;;;;3.80;2.80;;;20.60;80.40;;;20.91;64.15;94186.53;4996029;28;20193;-84
2021/08/06 09:42:35;;;;;;;3.30;3.00;;;20.70;80.90;;;21.14;63.76;94183.47;4995814;28;20220;-82
2021/08/06 09:45:09;;;;;;;3.53;2.90;;;20.80;81.10;;;21.38;63.89;94192.34;5012183;28;20247;-85
2021/08/06 09:47:39;;;;;;;3.35;3.03;;;20.90;81.30;;;21.59;63.68;94187.72;4995954;28;20600;-86
2021/08/06 09:50:12;;;;;;;3.58;3.28;;;21.10;81.60;;;21.84;63.35;94191.25;4996197;28;20226;-82
2021/08/06 09:52:47;;;;;;;3.30;3.00;;;21.20;81.50;;;22.01;63.31;94195.38;5012204;28;20231;-84
2021/08/06 09:55:32;;;;;;;3.45;2.92;;;21.40;81.10;;;22.03;61.70;94193.19;5027865;28;20223;-81
2021/08/06 09:58:03;;;;;;;2.78;2.58;;;21.60;79.80;;;21.96;60.95;94196.22;4979355;28;20732;-83
2021/08/06 10:00:33;;;;;;;2.92;2.60;;;21.60;79.70;;;21.86;61.36;94190.94;4995568;28;20224;-80
2021/08/06 10:03:01;;;;;;;2.90;2.70;;;21.70;78.90;;;21.78;61.33;94197.69;4979198;28;20198;-80
2021/08/06 10:05:31;;;;;;;2.85;2.65;;;21.70;78.70;;;21.79;61.40;94195.81;4995505;28;20307;-81
2021/08/06 10:08:02;;;;;;;2.25;2.05;;;21.70;78.50;;;21.78;61.18;94203.03;4995501;28;20221;-83
2021/08/06 10:10:32;;;;;;;2.42;2.20;;;21.70;78.10;;;21.81;61.27;94196.34;4995139;28;20722;-83
2021/08/06 10:13:00;;;;;;;2.58;2.38;;;21.70;78.30;;;21.81;60.60;94199.78;5027766;28;20199;-80
2021/08/06 10:15:30;;;;;;;2.45;2.25;;;21.80;77.70;;;21.77;59.93;94197.97;5011649;28;20303;-84
2021/08/06 10:17:59;;;;;;;2.50;2.30;;;21.80;77.50;;;21.73;59.97;94195.88;4995479;28;20256;-82
2021/08/06 10:20:28;;;;;;;2.45;2.25;;;21.70;77.50;;;21.74;60.61;94192.13;4979121;28;20756;-82
2021/08/06 10:22:56;;;;;;;2.40;2.10;;;21.70;77.60;;;21.74;60.93;94192.13;5012736;28;20190;-85
2021/08/06 10:25:24;;;;;;;2.13;1.98;;;21.70;78.10;;;21.77;60.06;94187.31;4995494;28;20223;-82
2021/08/06 10:27:52;;;;;;;2.08;1.85;;;21.60;77.00;;;21.74;59.50;94180.66;5027905;28;20200;-82
2021/08/06 10:30:32;;;;;;;1.98;1.88;;;21.70;77.30;;;21.74;60.09;94183.34;4995112;28;20232;-81
2021/08/06 10:33:28;;;;;;;1.85;1.75;;;21.60;77.50;;;21.75;59.77;94169.69;4995079;28;20656;-84
2021/08/06 10:36:02;;;;;;;2.00;1.90;;;21.60;77.10;;;21.88;60.51;94164.78;4996635;28;20214;-84